Webcam Flughafen St.Gallen-Altenrhein

Live-Bilder und Zeitraffer LSZR / ACH.

 

Live aus Altenrhein
LIVE
LSZR 240320Z AUTO VRB01KT 6000 BKN005 M02/M02 Q1026
Zeitraffer heute
2020-01-24 00:14:49
LSZR 232250Z AUTO VRB03KT 8000 BKN005 M01/M02 Q1027